sensor_id;sensor_type;location;lat;lon;timestamp;P1;durP1;ratioP1;P2;durP2;ratioP2
22160;SDS011;49035;48.812;11.762;2022-12-29T00:00:06;9.73;;;7.00;;
22160;SDS011;49035;48.812;11.762;2022-12-29T00:02:33;9.93;;;6.97;;
22160;SDS011;49035;48.812;11.762;2022-12-29T00:04:58;11.43;;;7.20;;
22160;SDS011;49035;48.812;11.762;2022-12-29T00:07:24;11.27;;;7.00;;
22160;SDS011;49035;48.812;11.762;2022-12-29T00:09:50;10.73;;;7.17;;
22160;SDS011;49035;48.812;11.762;2022-12-29T00:12:15;11.17;;;7.00;;
22160;SDS011;49035;48.812;11.762;2022-12-29T00:14:41;10.87;;;7.37;;
22160;SDS011;49035;48.812;11.762;2022-12-29T00:17:25;12.83;;;7.27;;
22160;SDS011;49035;48.812;11.762;2022-12-29T00:19:51;10.13;;;6.33;;
22160;SDS011;49035;48.812;11.762;2022-12-29T00:22:35;10.97;;;7.10;;
22160;SDS011;49035;48.812;11.762;2022-12-29T00:25:19;12.10;;;6.60;;
22160;SDS011;49035;48.812;11.762;2022-12-29T00:28:04;11.40;;;7.20;;
22160;SDS011;49035;48.812;11.762;2022-12-29T00:30:50;11.03;;;6.43;;
22160;SDS011;49035;48.812;11.762;2022-12-29T00:33:34;10.87;;;6.83;;
22160;SDS011;49035;48.812;11.762;2022-12-29T00:36:35;14.07;;;6.87;;
22160;SDS011;49035;48.812;11.762;2022-12-29T00:39:07;9.77;;;6.90;;
22160;SDS011;49035;48.812;11.762;2022-12-29T00:41:55;12.40;;;6.77;;
22160;SDS011;49035;48.812;11.762;2022-12-29T00:44:39;9.43;;;6.30;;
22160;SDS011;49035;48.812;11.762;2022-12-29T00:47:05;8.77;;;5.50;;
22160;SDS011;49035;48.812;11.762;2022-12-29T00:49:30;9.97;;;6.47;;
22160;SDS011;49035;48.812;11.762;2022-12-29T00:52:06;9.33;;;6.70;;
22160;SDS011;49035;48.812;11.762;2022-12-29T00:54:35;10.23;;;7.00;;
22160;SDS011;49035;48.812;11.762;2022-12-29T00:57:03;10.23;;;7.00;;
22160;SDS011;49035;48.812;11.762;2022-12-29T00:59:31;9.97;;;6.30;;
22160;SDS011;49035;48.812;11.762;2022-12-29T01:01:57;9.17;;;6.10;;
22160;SDS011;49035;48.812;11.762;2022-12-29T01:04:23;10.87;;;6.57;;
22160;SDS011;49035;48.812;11.762;2022-12-29T01:06:50;8.90;;;6.33;;
22160;SDS011;49035;48.812;11.762;2022-12-29T01:09:16;9.57;;;6.57;;
22160;SDS011;49035;48.812;11.762;2022-12-29T01:12:02;9.83;;;6.27;;
22160;SDS011;49035;48.812;11.762;2022-12-29T01:14:29;8.60;;;5.60;;
22160;SDS011;49035;48.812;11.762;2022-12-29T01:16:55;10.60;;;5.67;;
22160;SDS011;49035;48.812;11.762;2022-12-29T01:19:21;12.67;;;6.33;;
22160;SDS011;49035;48.812;11.762;2022-12-29T01:21:47;10.87;;;6.27;;
22160;SDS011;49035;48.812;11.762;2022-12-29T01:24:14;11.10;;;6.30;;
22160;SDS011;49035;48.812;11.762;2022-12-29T01:26:40;11.10;;;5.47;;
22160;SDS011;49035;48.812;11.762;2022-12-29T01:29:06;9.50;;;6.07;;
22160;SDS011;49035;48.812;11.762;2022-12-29T01:31:32;9.20;;;6.07;;
22160;SDS011;49035;48.812;11.762;2022-12-29T01:33:58;9.40;;;6.90;;
22160;SDS011;49035;48.812;11.762;2022-12-29T01:36:23;10.63;;;6.00;;
22160;SDS011;49035;48.812;11.762;2022-12-29T01:38:50;10.20;;;6.37;;
22160;SDS011;49035;48.812;11.762;2022-12-29T01:41:15;10.03;;;6.27;;
22160;SDS011;49035;48.812;11.762;2022-12-29T01:43:43;10.73;;;6.37;;
22160;SDS011;49035;48.812;11.762;2022-12-29T01:46:57;9.40;;;6.80;;
22160;SDS011;49035;48.812;11.762;2022-12-29T01:49:22;9.73;;;6.90;;
22160;SDS011;49035;48.812;11.762;2022-12-29T01:51:55;9.17;;;6.20;;
22160;SDS011;49035;48.812;11.762;2022-12-29T01:57:07;10.37;;;6.93;;
22160;SDS011;49035;48.812;11.762;2022-12-29T01:59:38;9.50;;;6.87;;
22160;SDS011;49035;48.812;11.762;2022-12-29T02:02:06;10.03;;;6.67;;
22160;SDS011;49035;48.812;11.762;2022-12-29T02:04:32;11.67;;;7.53;;
22160;SDS011;49035;48.812;11.762;2022-12-29T02:07:01;10.07;;;6.70;;
22160;SDS011;49035;48.812;11.762;2022-12-29T02:09:30;11.63;;;7.37;;
22160;SDS011;49035;48.812;11.762;2022-12-29T02:11:56;13.43;;;7.70;;
22160;SDS011;49035;48.812;11.762;2022-12-29T02:14:23;10.30;;;7.50;;
22160;SDS011;49035;48.812;11.762;2022-12-29T02:16:59;11.70;;;6.40;;
22160;SDS011;49035;48.812;11.762;2022-12-29T02:28:09;10.73;;;6.80;;
22160;SDS011;49035;48.812;11.762;2022-12-29T02:31:07;9.30;;;6.07;;
22160;SDS011;49035;48.812;11.762;2022-12-29T02:33:55;8.47;;;6.47;;
22160;SDS011;49035;48.812;11.762;2022-12-29T02:36:42;11.73;;;6.57;;
22160;SDS011;49035;48.812;11.762;2022-12-29T02:42:33;9.60;;;7.00;;
22160;SDS011;49035;48.812;11.762;2022-12-29T02:45:07;9.33;;;6.40;;
22160;SDS011;49035;48.812;11.762;2022-12-29T02:47:43;8.90;;;6.77;;
22160;SDS011;49035;48.812;11.762;2022-12-29T02:50:23;15.67;;;9.23;;
22160;SDS011;49035;48.812;11.762;2022-12-29T02:52:58;18.23;;;10.33;;
22160;SDS011;49035;48.812;11.762;2022-12-29T02:55:26;14.67;;;8.97;;
22160;SDS011;49035;48.812;11.762;2022-12-29T03:03:55;12.57;;;7.57;;
22160;SDS011;49035;48.812;11.762;2022-12-29T03:07:20;11.67;;;6.97;;
22160;SDS011;49035;48.812;11.762;2022-12-29T03:09:43;9.97;;;7.13;;
22160;SDS011;49035;48.812;11.762;2022-12-29T03:15:34;10.60;;;6.70;;
22160;SDS011;49035;48.812;11.762;2022-12-29T03:18:26;8.27;;;6.23;;
22160;SDS011;49035;48.812;11.762;2022-12-29T03:21:22;9.63;;;6.33;;
22160;SDS011;49035;48.812;11.762;2022-12-29T03:24:15;14.10;;;7.43;;
22160;SDS011;49035;48.812;11.762;2022-12-29T03:26:44;9.73;;;7.03;;
22160;SDS011;49035;48.812;11.762;2022-12-29T03:29:11;11.43;;;6.80;;
22160;SDS011;49035;48.812;11.762;2022-12-29T03:31:39;16.07;;;7.37;;
22160;SDS011;49035;48.812;11.762;2022-12-29T03:34:06;13.33;;;7.67;;
22160;SDS011;49035;48.812;11.762;2022-12-29T03:36:36;8.80;;;6.27;;
22160;SDS011;49035;48.812;11.762;2022-12-29T03:39:13;13.40;;;6.63;;
22160;SDS011;49035;48.812;11.762;2022-12-29T03:41:42;12.23;;;6.60;;
22160;SDS011;49035;48.812;11.762;2022-12-29T03:44:10;11.83;;;6.47;;
22160;SDS011;49035;48.812;11.762;2022-12-29T03:46:36;12.53;;;7.33;;
22160;SDS011;49035;48.812;11.762;2022-12-29T03:49:01;11.13;;;7.53;;
22160;SDS011;49035;48.812;11.762;2022-12-29T03:51:27;8.93;;;6.03;;
22160;SDS011;49035;48.812;11.762;2022-12-29T03:53:53;11.67;;;6.17;;
22160;SDS011;49035;48.812;11.762;2022-12-29T03:56:18;7.90;;;5.63;;
22160;SDS011;49035;48.812;11.762;2022-12-29T03:58:44;8.30;;;6.03;;
22160;SDS011;49035;48.812;11.762;2022-12-29T04:01:09;9.90;;;6.37;;
22160;SDS011;49035;48.812;11.762;2022-12-29T04:03:35;12.10;;;7.00;;
22160;SDS011;49035;48.812;11.762;2022-12-29T04:06:00;8.43;;;6.30;;
22160;SDS011;49035;48.812;11.762;2022-12-29T04:08:26;10.13;;;6.43;;
22160;SDS011;49035;48.812;11.762;2022-12-29T04:10:52;12.30;;;6.90;;
22160;SDS011;49035;48.812;11.762;2022-12-29T04:13:17;10.80;;;6.70;;
22160;SDS011;49035;48.812;11.762;2022-12-29T04:15:43;11.97;;;7.80;;
22160;SDS011;49035;48.812;11.762;2022-12-29T04:18:10;10.73;;;6.97;;
22160;SDS011;49035;48.812;11.762;2022-12-29T04:20:36;12.83;;;7.17;;
22160;SDS011;49035;48.812;11.762;2022-12-29T04:23:20;11.20;;;7.27;;
22160;SDS011;49035;48.812;11.762;2022-12-29T04:25:46;11.37;;;7.27;;
22160;SDS011;49035;48.812;11.762;2022-12-29T04:28:15;13.07;;;7.50;;
22160;SDS011;49035;48.812;11.762;2022-12-29T04:30:42;12.47;;;6.93;;
22160;SDS011;49035;48.812;11.762;2022-12-29T04:33:08;12.50;;;7.63;;
22160;SDS011;49035;48.812;11.762;2022-12-29T04:35:33;13.17;;;7.90;;
22160;SDS011;49035;48.812;11.762;2022-12-29T04:37:59;9.97;;;6.70;;
22160;SDS011;49035;48.812;11.762;2022-12-29T04:40:25;8.57;;;6.63;;
22160;SDS011;49035;48.812;11.762;2022-12-29T04:42:51;10.80;;;6.80;;
22160;SDS011;49035;48.812;11.762;2022-12-29T04:45:17;12.67;;;7.40;;
22160;SDS011;49035;48.812;11.762;2022-12-29T04:47:42;17.43;;;7.37;;
22160;SDS011;49035;48.812;11.762;2022-12-29T04:50:08;9.17;;;6.50;;
22160;SDS011;49035;48.812;11.762;2022-12-29T04:52:34;12.33;;;7.40;;
22160;SDS011;49035;48.812;11.762;2022-12-29T04:55:00;13.77;;;7.60;;
22160;SDS011;49035;48.812;11.762;2022-12-29T04:57:25;10.20;;;6.43;;
22160;SDS011;49035;48.812;11.762;2022-12-29T04:59:52;9.80;;;6.83;;
22160;SDS011;49035;48.812;11.762;2022-12-29T05:02:18;10.73;;;7.17;;
22160;SDS011;49035;48.812;11.762;2022-12-29T05:04:44;11.70;;;7.20;;
22160;SDS011;49035;48.812;11.762;2022-12-29T05:07:09;10.63;;;7.17;;
22160;SDS011;49035;48.812;11.762;2022-12-29T05:09:35;11.90;;;7.53;;
22160;SDS011;49035;48.812;11.762;2022-12-29T05:12:01;15.83;;;7.10;;
22160;SDS011;49035;48.812;11.762;2022-12-29T05:14:26;12.03;;;7.67;;
22160;SDS011;49035;48.812;11.762;2022-12-29T05:16:52;12.37;;;7.60;;
22160;SDS011;49035;48.812;11.762;2022-12-29T05:19:17;9.87;;;6.50;;
22160;SDS011;49035;48.812;11.762;2022-12-29T05:21:43;11.17;;;6.73;;
22160;SDS011;49035;48.812;11.762;2022-12-29T05:24:09;10.40;;;6.57;;
22160;SDS011;49035;48.812;11.762;2022-12-29T05:26:34;8.93;;;6.40;;
22160;SDS011;49035;48.812;11.762;2022-12-29T05:29:00;12.27;;;7.40;;
22160;SDS011;49035;48.812;11.762;2022-12-29T05:31:26;9.30;;;6.53;;
22160;SDS011;49035;48.812;11.762;2022-12-29T05:33:52;9.27;;;6.63;;
22160;SDS011;49035;48.812;11.762;2022-12-29T05:36:18;10.67;;;7.10;;
22160;SDS011;49035;48.812;11.762;2022-12-29T05:38:44;11.07;;;7.57;;
22160;SDS011;49035;48.812;11.762;2022-12-29T05:41:10;13.00;;;7.73;;
22160;SDS011;49035;48.812;11.762;2022-12-29T05:43:35;10.87;;;7.40;;
22160;SDS011;49035;48.812;11.762;2022-12-29T05:46:01;10.70;;;7.30;;
22160;SDS011;49035;48.812;11.762;2022-12-29T05:48:28;9.63;;;7.07;;
22160;SDS011;49035;48.812;11.762;2022-12-29T05:50:53;10.13;;;7.20;;
22160;SDS011;49035;48.812;11.762;2022-12-29T05:53:19;9.30;;;6.37;;
22160;SDS011;49035;48.812;11.762;2022-12-29T05:55:46;10.80;;;6.80;;
22160;SDS011;49035;48.812;11.762;2022-12-29T05:58:13;10.83;;;6.83;;
22160;SDS011;49035;48.812;11.762;2022-12-29T06:00:39;11.90;;;6.43;;
22160;SDS011;49035;48.812;11.762;2022-12-29T06:03:05;13.63;;;6.37;;
22160;SDS011;49035;48.812;11.762;2022-12-29T06:05:30;8.97;;;6.13;;
22160;SDS011;49035;48.812;11.762;2022-12-29T06:07:56;10.57;;;6.50;;
22160;SDS011;49035;48.812;11.762;2022-12-29T06:10:21;8.27;;;5.70;;
22160;SDS011;49035;48.812;11.762;2022-12-29T06:12:47;9.50;;;6.77;;
22160;SDS011;49035;48.812;11.762;2022-12-29T06:15:13;9.40;;;6.17;;
22160;SDS011;49035;48.812;11.762;2022-12-29T06:17:39;8.03;;;6.13;;
22160;SDS011;49035;48.812;11.762;2022-12-29T06:20:05;12.93;;;6.53;;
22160;SDS011;49035;48.812;11.762;2022-12-29T06:22:32;12.73;;;7.37;;
22160;SDS011;49035;48.812;11.762;2022-12-29T06:24:57;10.20;;;6.53;;
22160;SDS011;49035;48.812;11.762;2022-12-29T06:27:23;13.07;;;6.97;;
22160;SDS011;49035;48.812;11.762;2022-12-29T06:29:49;14.60;;;7.00;;
22160;SDS011;49035;48.812;11.762;2022-12-29T06:32:15;10.90;;;7.13;;
22160;SDS011;49035;48.812;11.762;2022-12-29T06:34:40;10.73;;;7.17;;
22160;SDS011;49035;48.812;11.762;2022-12-29T06:37:06;10.10;;;6.77;;
22160;SDS011;49035;48.812;11.762;2022-12-29T06:39:32;9.20;;;6.67;;
22160;SDS011;49035;48.812;11.762;2022-12-29T06:41:57;10.80;;;7.17;;
22160;SDS011;49035;48.812;11.762;2022-12-29T06:44:23;12.07;;;7.97;;
22160;SDS011;49035;48.812;11.762;2022-12-29T06:46:49;13.57;;;7.57;;
22160;SDS011;49035;48.812;11.762;2022-12-29T06:49:15;10.87;;;7.40;;
22160;SDS011;49035;48.812;11.762;2022-12-29T06:51:40;13.73;;;7.53;;
22160;SDS011;49035;48.812;11.762;2022-12-29T06:54:06;11.43;;;7.30;;
22160;SDS011;49035;48.812;11.762;2022-12-29T06:56:32;13.90;;;8.03;;
22160;SDS011;49035;48.812;11.762;2022-12-29T06:58:57;17.83;;;8.87;;
22160;SDS011;49035;48.812;11.762;2022-12-29T07:01:25;11.33;;;8.27;;
22160;SDS011;49035;48.812;11.762;2022-12-29T07:03:50;13.70;;;7.60;;
22160;SDS011;49035;48.812;11.762;2022-12-29T07:06:16;13.17;;;8.20;;
22160;SDS011;49035;48.812;11.762;2022-12-29T07:08:42;15.97;;;8.00;;
22160;SDS011;49035;48.812;11.762;2022-12-29T07:11:07;14.70;;;7.27;;
22160;SDS011;49035;48.812;11.762;2022-12-29T07:13:33;11.70;;;7.80;;
22160;SDS011;49035;48.812;11.762;2022-12-29T07:15:59;13.27;;;8.00;;
22160;SDS011;49035;48.812;11.762;2022-12-29T07:18:29;23.77;;;10.03;;
22160;SDS011;49035;48.812;11.762;2022-12-29T07:20:55;14.93;;;8.60;;
22160;SDS011;49035;48.812;11.762;2022-12-29T07:23:20;14.23;;;8.03;;
22160;SDS011;49035;48.812;11.762;2022-12-29T07:25:46;11.60;;;8.37;;
22160;SDS011;49035;48.812;11.762;2022-12-29T07:28:12;12.10;;;8.30;;
22160;SDS011;49035;48.812;11.762;2022-12-29T07:30:38;15.07;;;9.33;;
22160;SDS011;49035;48.812;11.762;2022-12-29T07:33:04;15.20;;;8.73;;
22160;SDS011;49035;48.812;11.762;2022-12-29T07:35:30;13.63;;;8.73;;
22160;SDS011;49035;48.812;11.762;2022-12-29T07:37:56;14.33;;;9.23;;
22160;SDS011;49035;48.812;11.762;2022-12-29T07:40:21;13.90;;;9.57;;
22160;SDS011;49035;48.812;11.762;2022-12-29T07:42:47;16.57;;;10.00;;
22160;SDS011;49035;48.812;11.762;2022-12-29T07:45:12;19.97;;;9.90;;
22160;SDS011;49035;48.812;11.762;2022-12-29T07:47:38;20.77;;;11.47;;
22160;SDS011;49035;48.812;11.762;2022-12-29T07:50:04;17.93;;;10.63;;
22160;SDS011;49035;48.812;11.762;2022-12-29T07:52:30;18.40;;;10.50;;
22160;SDS011;49035;48.812;11.762;2022-12-29T07:54:55;19.40;;;10.77;;
22160;SDS011;49035;48.812;11.762;2022-12-29T07:57:21;14.53;;;9.33;;
22160;SDS011;49035;48.812;11.762;2022-12-29T07:59:47;19.50;;;10.00;;
22160;SDS011;49035;48.812;11.762;2022-12-29T08:02:12;15.37;;;10.00;;
22160;SDS011;49035;48.812;11.762;2022-12-29T08:04:38;17.20;;;10.27;;
22160;SDS011;49035;48.812;11.762;2022-12-29T08:07:03;16.37;;;10.87;;
22160;SDS011;49035;48.812;11.762;2022-12-29T08:09:29;17.67;;;10.60;;
22160;SDS011;49035;48.812;11.762;2022-12-29T08:11:54;16.30;;;9.13;;
22160;SDS011;49035;48.812;11.762;2022-12-29T08:14:20;16.30;;;10.63;;
22160;SDS011;49035;48.812;11.762;2022-12-29T08:16:46;17.77;;;10.80;;
22160;SDS011;49035;48.812;11.762;2022-12-29T08:19:12;21.43;;;10.73;;
22160;SDS011;49035;48.812;11.762;2022-12-29T08:21:38;22.63;;;12.90;;
22160;SDS011;49035;48.812;11.762;2022-12-29T08:24:04;18.83;;;12.23;;
22160;SDS011;49035;48.812;11.762;2022-12-29T08:26:30;25.73;;;14.13;;
22160;SDS011;49035;48.812;11.762;2022-12-29T08:28:56;19.27;;;12.63;;
22160;SDS011;49035;48.812;11.762;2022-12-29T08:31:22;18.87;;;11.50;;
22160;SDS011;49035;48.812;11.762;2022-12-29T08:33:48;18.47;;;11.53;;
22160;SDS011;49035;48.812;11.762;2022-12-29T08:36:14;17.87;;;11.93;;
22160;SDS011;49035;48.812;11.762;2022-12-29T08:38:39;20.07;;;12.03;;
22160;SDS011;49035;48.812;11.762;2022-12-29T08:41:05;24.93;;;13.80;;
22160;SDS011;49035;48.812;11.762;2022-12-29T08:43:30;25.27;;;14.67;;
22160;SDS011;49035;48.812;11.762;2022-12-29T08:45:59;29.53;;;16.40;;
22160;SDS011;49035;48.812;11.762;2022-12-29T08:48:25;29.47;;;16.13;;
22160;SDS011;49035;48.812;11.762;2022-12-29T08:50:51;25.37;;;13.87;;
22160;SDS011;49035;48.812;11.762;2022-12-29T08:53:17;17.93;;;12.97;;
22160;SDS011;49035;48.812;11.762;2022-12-29T08:55:47;26.07;;;14.33;;
22160;SDS011;49035;48.812;11.762;2022-12-29T08:58:20;21.40;;;13.40;;
22160;SDS011;49035;48.812;11.762;2022-12-29T09:00:46;19.07;;;12.20;;
22160;SDS011;49035;48.812;11.762;2022-12-29T09:03:11;22.30;;;12.87;;
22160;SDS011;49035;48.812;11.762;2022-12-29T09:05:37;22.83;;;14.37;;
22160;SDS011;49035;48.812;11.762;2022-12-29T09:08:03;22.40;;;13.47;;
22160;SDS011;49035;48.812;11.762;2022-12-29T09:10:29;20.80;;;13.77;;
22160;SDS011;49035;48.812;11.762;2022-12-29T09:12:56;22.23;;;13.13;;
22160;SDS011;49035;48.812;11.762;2022-12-29T09:15:21;18.80;;;12.30;;
22160;SDS011;49035;48.812;11.762;2022-12-29T09:17:47;18.77;;;12.13;;
22160;SDS011;49035;48.812;11.762;2022-12-29T09:20:14;19.87;;;12.47;;
22160;SDS011;49035;48.812;11.762;2022-12-29T09:22:42;19.23;;;12.57;;
22160;SDS011;49035;48.812;11.762;2022-12-29T09:25:08;17.53;;;11.80;;
22160;SDS011;49035;48.812;11.762;2022-12-29T09:27:35;16.37;;;10.60;;
22160;SDS011;49035;48.812;11.762;2022-12-29T09:30:03;19.37;;;10.93;;
22160;SDS011;49035;48.812;11.762;2022-12-29T09:32:30;13.87;;;10.43;;
22160;SDS011;49035;48.812;11.762;2022-12-29T09:34:56;15.23;;;10.20;;
22160;SDS011;49035;48.812;11.762;2022-12-29T09:37:21;13.50;;;9.80;;
22160;SDS011;49035;48.812;11.762;2022-12-29T09:39:47;14.23;;;9.10;;
22160;SDS011;49035;48.812;11.762;2022-12-29T09:42:15;12.97;;;8.53;;
22160;SDS011;49035;48.812;11.762;2022-12-29T09:47:29;11.07;;;8.53;;
22160;SDS011;49035;48.812;11.762;2022-12-29T09:53:11;13.67;;;9.13;;
22160;SDS011;49035;48.812;11.762;2022-12-29T09:55:45;11.67;;;8.20;;
22160;SDS011;49035;48.812;11.762;2022-12-29T10:01:16;14.33;;;7.40;;
22160;SDS011;49035;48.812;11.762;2022-12-29T10:03:52;11.40;;;7.40;;
22160;SDS011;49035;48.812;11.762;2022-12-29T10:06:24;11.90;;;7.43;;
22160;SDS011;49035;48.812;11.762;2022-12-29T10:14:29;9.93;;;7.07;;
22160;SDS011;49035;48.812;11.762;2022-12-29T10:25:25;30.92;;;15.35;;
22160;SDS011;49035;48.812;11.762;2022-12-29T10:27:53;14.05;;;8.05;;
22160;SDS011;49035;48.812;11.762;2022-12-29T10:30:24;12.93;;;8.52;;
22160;SDS011;49035;48.812;11.762;2022-12-29T10:32:57;14.05;;;8.88;;
22160;SDS011;49035;48.812;11.762;2022-12-29T10:35:30;17.02;;;9.88;;
22160;SDS011;49035;48.812;11.762;2022-12-29T10:40:38;10.07;;;8.13;;
22160;SDS011;49035;48.812;11.762;2022-12-29T10:43:24;11.13;;;8.05;;
22160;SDS011;49035;48.812;11.762;2022-12-29T10:45:59;10.05;;;7.50;;
22160;SDS011;49035;48.812;11.762;2022-12-29T10:48:33;12.27;;;8.20;;
22160;SDS011;49035;48.812;11.762;2022-12-29T10:51:00;11.25;;;8.20;;
22160;SDS011;49035;48.812;11.762;2022-12-29T10:56:43;9.70;;;6.63;;
22160;SDS011;49035;48.812;11.762;2022-12-29T10:59:18;8.27;;;6.22;;
22160;SDS011;49035;48.812;11.762;2022-12-29T11:04:54;9.93;;;6.53;;
22160;SDS011;49035;48.812;11.762;2022-12-29T11:07:33;9.35;;;6.40;;
22160;SDS011;49035;48.812;11.762;2022-12-29T11:10:16;8.60;;;6.53;;
22160;SDS011;49035;48.812;11.762;2022-12-29T11:12:55;8.68;;;6.32;;
22160;SDS011;49035;48.812;11.762;2022-12-29T11:15:24;10.23;;;6.82;;
22160;SDS011;49035;48.812;11.762;2022-12-29T11:17:56;9.77;;;6.80;;
22160;SDS011;49035;48.812;11.762;2022-12-29T11:22:59;6.90;;;5.78;;
22160;SDS011;49035;48.812;11.762;2022-12-29T11:25:25;7.80;;;5.40;;
22160;SDS011;49035;48.812;11.762;2022-12-29T11:28:34;4.45;;;3.38;;
22160;SDS011;49035;48.812;11.762;2022-12-29T11:30:41;4.63;;;2.85;;
22160;SDS011;49035;48.812;11.762;2022-12-29T11:33:08;5.40;;;2.13;;
22160;SDS011;49035;48.812;11.762;2022-12-29T11:35:43;5.65;;;2.42;;
22160;SDS011;49035;48.812;11.762;2022-12-29T11:38:18;2.85;;;1.55;;
22160;SDS011;49035;48.812;11.762;2022-12-29T11:40:46;3.47;;;1.70;;
22160;SDS011;49035;48.812;11.762;2022-12-29T11:43:19;2.92;;;1.50;;
22160;SDS011;49035;48.812;11.762;2022-12-29T11:45:51;2.10;;;1.30;;
22160;SDS011;49035;48.812;11.762;2022-12-29T11:48:19;4.93;;;1.50;;
22160;SDS011;49035;48.812;11.762;2022-12-29T11:50:53;3.42;;;1.88;;
22160;SDS011;49035;48.812;11.762;2022-12-29T11:53:21;3.60;;;1.40;;
22160;SDS011;49035;48.812;11.762;2022-12-29T11:55:53;1.63;;;1.50;;
22160;SDS011;49035;48.812;11.762;2022-12-29T11:58:35;2.58;;;1.65;;
22160;SDS011;49035;48.812;11.762;2022-12-29T12:06:30;2.10;;;1.35;;
22160;SDS011;49035;48.812;11.762;2022-12-29T12:09:02;1.35;;;1.20;;
22160;SDS011;49035;48.812;11.762;2022-12-29T12:11:34;2.78;;;1.35;;
22160;SDS011;49035;48.812;11.762;2022-12-29T12:14:11;3.97;;;1.42;;
22160;SDS011;49035;48.812;11.762;2022-12-29T12:19:20;2.13;;;1.45;;
22160;SDS011;49035;48.812;11.762;2022-12-29T12:25:01;1.92;;;1.40;;
22160;SDS011;49035;48.812;11.762;2022-12-29T12:35:17;1.08;;;1.08;;
22160;SDS011;49035;48.812;11.762;2022-12-29T12:57:09;2.22;;;1.42;;
22160;SDS011;49035;48.812;11.762;2022-12-29T13:02:15;2.28;;;1.13;;
22160;SDS011;49035;48.812;11.762;2022-12-29T13:10:12;2.22;;;1.17;;
22160;SDS011;49035;48.812;11.762;2022-12-29T13:19:06;1.77;;;1.20;;
22160;SDS011;49035;48.812;11.762;2022-12-29T13:24:20;2.33;;;1.65;;
22160;SDS011;49035;48.812;11.762;2022-12-29T13:30:22;2.72;;;1.00;;
22160;SDS011;49035;48.812;11.762;2022-12-29T13:33:19;1.63;;;1.02;;
22160;SDS011;49035;48.812;11.762;2022-12-29T13:36:16;3.45;;;2.13;;
22160;SDS011;49035;48.812;11.762;2022-12-29T13:43:58;5.68;;;2.38;;
22160;SDS011;49035;48.812;11.762;2022-12-29T13:46:34;2.30;;;1.52;;
22160;SDS011;49035;48.812;11.762;2022-12-29T13:49:07;2.05;;;1.30;;
22160;SDS011;49035;48.812;11.762;2022-12-29T13:51:38;4.82;;;1.70;;
22160;SDS011;49035;48.812;11.762;2022-12-29T13:56:49;2.15;;;1.40;;
22160;SDS011;49035;48.812;11.762;2022-12-29T14:04:59;3.65;;;1.58;;
22160;SDS011;49035;48.812;11.762;2022-12-29T14:07:35;4.05;;;1.38;;
22160;SDS011;49035;48.812;11.762;2022-12-29T14:10:03;2.53;;;1.50;;
22160;SDS011;49035;48.812;11.762;2022-12-29T14:12:35;4.28;;;1.50;;
22160;SDS011;49035;48.812;11.762;2022-12-29T14:15:22;3.88;;;1.58;;
22160;SDS011;49035;48.812;11.762;2022-12-29T14:20:53;2.65;;;1.65;;
22160;SDS011;49035;48.812;11.762;2022-12-29T14:23:35;4.22;;;1.80;;
22160;SDS011;49035;48.812;11.762;2022-12-29T14:28:32;4.15;;;1.77;;
22160;SDS011;49035;48.812;11.762;2022-12-29T14:34:44;3.25;;;1.70;;
22160;SDS011;49035;48.812;11.762;2022-12-29T14:36:42;3.55;;;1.90;;
22160;SDS011;49035;48.812;11.762;2022-12-29T14:44:51;2.15;;;1.40;;
22160;SDS011;49035;48.812;11.762;2022-12-29T14:57:43;5.30;;;1.52;;
22160;SDS011;49035;48.812;11.762;2022-12-29T15:05:58;5.65;;;1.65;;
22160;SDS011;49035;48.812;11.762;2022-12-29T15:08:32;4.47;;;1.55;;
22160;SDS011;49035;48.812;11.762;2022-12-29T15:13:33;2.45;;;1.60;;
22160;SDS011;49035;48.812;11.762;2022-12-29T15:16:01;1.60;;;1.50;;
22160;SDS011;49035;48.812;11.762;2022-12-29T15:18:31;2.20;;;1.60;;
22160;SDS011;49035;48.812;11.762;2022-12-29T15:21:02;3.58;;;1.83;;
22160;SDS011;49035;48.812;11.762;2022-12-29T15:23:30;2.88;;;1.67;;
22160;SDS011;49035;48.812;11.762;2022-12-29T15:28:27;2.67;;;1.50;;
22160;SDS011;49035;48.812;11.762;2022-12-29T15:31:09;8.55;;;2.03;;
22160;SDS011;49035;48.812;11.762;2022-12-29T15:33:41;3.13;;;1.60;;
22160;SDS011;49035;48.812;11.762;2022-12-29T15:36:10;2.88;;;1.52;;
22160;SDS011;49035;48.812;11.762;2022-12-29T15:38:38;2.67;;;1.75;;
22160;SDS011;49035;48.812;11.762;2022-12-29T15:41:29;3.42;;;2.08;;
22160;SDS011;49035;48.812;11.762;2022-12-29T15:44:25;6.03;;;2.50;;
22160;SDS011;49035;48.812;11.762;2022-12-29T15:47:00;5.20;;;3.55;;
22160;SDS011;49035;48.812;11.762;2022-12-29T15:49:28;6.03;;;4.00;;
22160;SDS011;49035;48.812;11.762;2022-12-29T15:51:54;8.80;;;4.20;;
22160;SDS011;49035;48.812;11.762;2022-12-29T15:54:20;7.05;;;4.38;;
22160;SDS011;49035;48.812;11.762;2022-12-29T15:56:47;7.38;;;4.45;;
22160;SDS011;49035;48.812;11.762;2022-12-29T15:59:33;15.85;;;8.68;;
22160;SDS011;49035;48.812;11.762;2022-12-29T16:01:59;6.40;;;4.75;;
22160;SDS011;49035;48.812;11.762;2022-12-29T16:04:28;9.68;;;5.68;;
22160;SDS011;49035;48.812;11.762;2022-12-29T16:06:57;9.57;;;5.70;;
22160;SDS011;49035;48.812;11.762;2022-12-29T16:09:41;7.03;;;4.55;;
22160;SDS011;49035;48.812;11.762;2022-12-29T16:12:19;7.13;;;4.20;;
22160;SDS011;49035;48.812;11.762;2022-12-29T16:14:52;7.05;;;4.15;;
22160;SDS011;49035;48.812;11.762;2022-12-29T16:17:21;6.70;;;4.45;;
22160;SDS011;49035;48.812;11.762;2022-12-29T16:20:04;9.05;;;4.90;;
22160;SDS011;49035;48.812;11.762;2022-12-29T16:22:57;12.77;;;6.03;;
22160;SDS011;49035;48.812;11.762;2022-12-29T16:27:56;11.32;;;8.27;;
22160;SDS011;49035;48.812;11.762;2022-12-29T16:30:27;9.23;;;5.95;;
22160;SDS011;49035;48.812;11.762;2022-12-29T16:32:56;12.27;;;7.10;;
22160;SDS011;49035;48.812;11.762;2022-12-29T16:35:29;13.43;;;8.40;;
22160;SDS011;49035;48.812;11.762;2022-12-29T16:38:13;12.23;;;7.22;;
22160;SDS011;49035;48.812;11.762;2022-12-29T16:40:49;7.22;;;5.00;;
22160;SDS011;49035;48.812;11.762;2022-12-29T16:43:25;11.38;;;5.53;;
22160;SDS011;49035;48.812;11.762;2022-12-29T16:48:28;8.80;;;5.18;;
22160;SDS011;49035;48.812;11.762;2022-12-29T16:51:02;12.60;;;5.25;;
22160;SDS011;49035;48.812;11.762;2022-12-29T16:53:48;8.93;;;5.88;;
22160;SDS011;49035;48.812;11.762;2022-12-29T16:56:22;13.48;;;7.30;;
22160;SDS011;49035;48.812;11.762;2022-12-29T16:58:52;13.70;;;8.35;;
22160;SDS011;49035;48.812;11.762;2022-12-29T17:01:27;14.35;;;8.77;;
22160;SDS011;49035;48.812;11.762;2022-12-29T17:04:04;13.05;;;8.75;;
22160;SDS011;49035;48.812;11.762;2022-12-29T17:06:32;12.65;;;7.07;;
22160;SDS011;49035;48.812;11.762;2022-12-29T17:08:58;13.10;;;7.78;;
22160;SDS011;49035;48.812;11.762;2022-12-29T17:11:33;16.50;;;9.20;;
22160;SDS011;49035;48.812;11.762;2022-12-29T17:14:30;14.20;;;9.75;;
22160;SDS011;49035;48.812;11.762;2022-12-29T17:17:05;19.80;;;11.43;;
22160;SDS011;49035;48.812;11.762;2022-12-29T17:19:39;29.00;;;15.23;;
22160;SDS011;49035;48.812;11.762;2022-12-29T17:22:32;21.63;;;12.23;;
22160;SDS011;49035;48.812;11.762;2022-12-29T17:24:58;18.33;;;11.33;;
22160;SDS011;49035;48.812;11.762;2022-12-29T17:27:27;21.63;;;12.20;;
22160;SDS011;49035;48.812;11.762;2022-12-29T17:29:54;15.83;;;9.33;;
22160;SDS011;49035;48.812;11.762;2022-12-29T17:32:23;14.07;;;9.20;;